createdAt,value
2023-06-04T00:00:10.508Z,1.60
2023-06-04T00:02:40.273Z,1.40
2023-06-04T00:05:09.966Z,1.92
2023-06-04T00:07:39.854Z,1.23
2023-06-04T00:10:09.291Z,1.30
2023-06-04T00:12:38.280Z,1.25
2023-06-04T00:15:08.394Z,1.30
2023-06-04T00:17:36.694Z,1.35
2023-06-04T00:20:05.946Z,1.30
2023-06-04T00:22:34.675Z,1.42
2023-06-04T00:25:05.174Z,1.50
2023-06-04T00:27:33.809Z,1.25
2023-06-04T00:30:02.657Z,1.40
2023-06-04T00:32:31.120Z,1.30
2023-06-04T00:35:00.048Z,1.50
2023-06-04T00:37:29.809Z,1.20
2023-06-04T00:39:58.322Z,1.55
2023-06-04T00:42:28.420Z,1.30
2023-06-04T00:44:58.752Z,1.20
2023-06-04T00:47:27.579Z,1.42
2023-06-04T00:50:00.258Z,1.40
2023-06-04T00:52:28.949Z,1.60
2023-06-04T00:54:57.887Z,1.45
2023-06-04T00:57:27.918Z,1.30
2023-06-04T00:59:57.149Z,1.27
2023-06-04T01:02:28.740Z,1.20
2023-06-04T01:05:11.158Z,1.40
2023-06-04T01:07:46.618Z,1.60
2023-06-04T01:10:15.599Z,1.40
2023-06-04T01:12:45.985Z,1.40
2023-06-04T01:15:16.714Z,1.30
2023-06-04T01:17:52.805Z,1.27
2023-06-04T01:20:36.652Z,1.33
2023-06-04T01:23:30.085Z,1.42
2023-06-04T01:25:59.468Z,1.60
2023-06-04T01:28:30.623Z,1.30
2023-06-04T01:31:00.801Z,1.33
2023-06-04T01:33:30.713Z,1.50
2023-06-04T01:36:01.121Z,1.45
2023-06-04T01:38:30.007Z,1.58
2023-06-04T01:41:02.429Z,1.33
2023-06-04T01:43:36.090Z,1.02
2023-06-04T01:46:04.845Z,1.42
2023-06-04T01:48:34.837Z,1.40
2023-06-04T01:51:03.566Z,1.33
2023-06-04T01:53:32.970Z,1.42
2023-06-04T01:56:02.229Z,1.23
2023-06-04T01:58:33.280Z,1.35
2023-06-04T02:01:04.537Z,1.35
2023-06-04T02:03:38.018Z,1.20
2023-06-04T02:06:08.574Z,1.33
2023-06-04T02:08:37.604Z,1.75
2023-06-04T02:11:06.474Z,1.30
2023-06-04T02:13:37.374Z,1.55
2023-06-04T02:16:06.620Z,1.30
2023-06-04T02:18:35.310Z,1.63
2023-06-04T02:21:05.906Z,1.40
2023-06-04T02:23:34.408Z,1.33
2023-06-04T02:26:03.084Z,1.40
2023-06-04T02:28:31.881Z,1.25
2023-06-04T02:31:01.675Z,1.40
2023-06-04T02:33:30.280Z,1.67
2023-06-04T02:35:59.251Z,1.50
2023-06-04T02:38:27.900Z,1.45
2023-06-04T02:40:56.285Z,1.70
2023-06-04T02:43:25.311Z,1.50
2023-06-04T02:45:53.988Z,1.42
2023-06-04T02:48:23.674Z,1.45
2023-06-04T02:50:52.391Z,1.40
2023-06-04T02:53:22.033Z,1.45
2023-06-04T02:55:51.906Z,1.60
2023-06-04T02:58:20.221Z,1.53
2023-06-04T03:00:48.855Z,1.60
2023-06-04T03:03:17.690Z,1.60
2023-06-04T03:05:47.820Z,1.47
2023-06-04T03:08:16.708Z,1.30
2023-06-04T03:10:45.792Z,1.70
2023-06-04T03:13:16.380Z,1.40
2023-06-04T03:15:45.908Z,1.40
2023-06-04T03:18:14.580Z,1.50
2023-06-04T03:20:43.194Z,1.40
2023-06-04T03:23:13.248Z,1.30
2023-06-04T03:25:41.868Z,1.77
2023-06-04T03:28:10.634Z,1.43
2023-06-04T03:30:39.366Z,1.60
2023-06-04T03:33:09.983Z,1.40
2023-06-04T03:35:38.810Z,1.53
2023-06-04T03:38:07.993Z,1.27
2023-06-04T03:40:38.660Z,1.50
2023-06-04T03:43:09.251Z,1.50
2023-06-04T03:45:38.650Z,1.60
2023-06-04T03:48:07.713Z,1.73
2023-06-04T03:50:37.976Z,1.70
2023-06-04T03:53:07.008Z,1.87
2023-06-04T03:55:38.082Z,1.20
2023-06-04T03:58:10.541Z,1.47
2023-06-04T04:00:41.285Z,1.50
2023-06-04T04:03:11.271Z,1.47
2023-06-04T04:05:40.292Z,1.63
2023-06-04T04:08:10.111Z,1.20
2023-06-04T04:10:40.280Z,1.20
2023-06-04T04:13:08.903Z,1.43
2023-06-04T04:15:40.551Z,1.42
2023-06-04T04:18:11.854Z,1.40
2023-06-04T04:20:41.121Z,1.60
2023-06-04T04:23:13.014Z,1.40
2023-06-04T04:25:46.192Z,1.48
2023-06-04T04:28:15.421Z,1.35
2023-06-04T04:30:44.511Z,1.50
2023-06-04T04:33:16.827Z,1.45
2023-06-04T04:35:49.182Z,1.60
2023-06-04T04:38:20.587Z,1.60
2023-06-04T04:40:56.739Z,1.65
2023-06-04T04:43:33.464Z,1.63
2023-06-04T04:46:09.752Z,1.60
2023-06-04T04:48:39.754Z,1.60
2023-06-04T04:51:08.778Z,1.40
2023-06-04T04:53:38.208Z,1.50
2023-06-04T04:56:08.524Z,1.50
2023-06-04T04:58:40.866Z,1.55
2023-06-04T05:01:10.110Z,1.42
2023-06-04T05:03:40.102Z,1.65
2023-06-04T05:06:09.943Z,1.42
2023-06-04T05:08:38.846Z,1.52
2023-06-04T05:11:09.316Z,1.30
2023-06-04T05:13:38.495Z,1.58
2023-06-04T05:16:08.768Z,1.63
2023-06-04T05:18:42.411Z,1.42
2023-06-04T05:21:13.966Z,1.50
2023-06-04T05:23:49.665Z,1.30
2023-06-04T05:26:24.263Z,1.70
2023-06-04T05:28:56.050Z,1.45
2023-06-04T05:31:27.699Z,1.60
2023-06-04T05:33:58.670Z,1.60
2023-06-04T05:36:29.295Z,1.45
2023-06-04T05:39:01.098Z,1.88
2023-06-04T05:41:51.603Z,1.80
2023-06-04T05:44:20.765Z,1.60
2023-06-04T05:46:50.230Z,1.40
2023-06-04T05:49:19.057Z,1.52
2023-06-04T05:51:47.904Z,1.40
2023-06-04T05:54:16.647Z,1.48
2023-06-04T05:56:46.315Z,1.50
2023-06-04T05:59:16.818Z,1.45
2023-06-04T06:01:45.532Z,1.50
2023-06-04T06:04:14.639Z,1.58
2023-06-04T06:06:45.123Z,1.50
2023-06-04T06:09:13.875Z,1.23
2023-06-04T06:11:42.953Z,1.55
2023-06-04T06:14:11.529Z,1.60
2023-06-04T06:16:41.387Z,1.58
2023-06-04T06:19:09.936Z,1.70
2023-06-04T06:21:38.704Z,1.40
2023-06-04T06:24:07.492Z,1.77
2023-06-04T06:26:37.207Z,1.90
2023-06-04T06:29:07.219Z,1.65
2023-06-04T06:31:36.934Z,1.77
2023-06-04T06:34:06.685Z,2.08
2023-06-04T06:36:35.377Z,1.55
2023-06-04T06:39:04.423Z,1.60
2023-06-04T06:41:33.510Z,1.98
2023-06-04T06:44:02.249Z,1.83
2023-06-04T06:46:30.589Z,1.90
2023-06-04T06:49:00.285Z,1.90
2023-06-04T06:51:29.982Z,2.03
2023-06-04T06:53:58.615Z,1.75
2023-06-04T06:56:27.352Z,2.10
2023-06-04T06:58:55.659Z,1.73
2023-06-04T07:01:24.429Z,1.90
2023-06-04T07:03:53.047Z,1.83
2023-06-04T07:06:22.032Z,2.00
2023-06-04T07:08:51.676Z,2.03
2023-06-04T07:11:20.361Z,2.05
2023-06-04T07:13:48.875Z,1.95
2023-06-04T07:16:17.842Z,1.73
2023-06-04T07:18:47.246Z,1.90
2023-06-04T07:21:15.506Z,2.00
2023-06-04T07:23:46.722Z,1.90
2023-06-04T07:26:17.451Z,1.83
2023-06-04T07:28:47.354Z,1.83
2023-06-04T07:31:18.657Z,1.92
2023-06-04T07:33:47.019Z,1.88
2023-06-04T07:36:16.397Z,1.90
2023-06-04T07:38:45.062Z,1.80
2023-06-04T07:41:15.070Z,1.98
2023-06-04T07:43:45.593Z,1.67
2023-06-04T07:46:14.119Z,2.15
2023-06-04T07:48:42.455Z,1.95
2023-06-04T07:51:12.480Z,2.28
2023-06-04T07:53:42.044Z,2.10
2023-06-04T07:56:10.486Z,1.80
2023-06-04T07:58:41.567Z,1.95
2023-06-04T08:01:11.131Z,2.10
2023-06-04T08:03:39.855Z,2.03
2023-06-04T08:06:08.871Z,2.13
2023-06-04T08:08:37.214Z,2.10
2023-06-04T08:11:06.001Z,2.10
2023-06-04T08:13:34.453Z,1.98
2023-06-04T08:16:04.133Z,1.98
2023-06-04T08:18:32.414Z,2.35
2023-06-04T08:21:00.822Z,2.00
2023-06-04T08:23:29.175Z,2.08
2023-06-04T08:25:57.595Z,2.10
2023-06-04T08:28:26.027Z,2.13
2023-06-04T08:30:54.333Z,2.20
2023-06-04T08:33:23.970Z,2.00
2023-06-04T08:35:52.601Z,2.60
2023-06-04T08:38:22.156Z,2.17
2023-06-04T08:40:58.717Z,1.90
2023-06-04T08:43:27.909Z,1.80
2023-06-04T08:46:03.043Z,2.30
2023-06-04T08:48:34.378Z,1.98
2023-06-04T08:51:04.856Z,2.22
2023-06-04T08:53:34.141Z,1.75
2023-06-04T08:56:02.756Z,2.35
2023-06-04T08:58:34.445Z,1.75
2023-06-04T09:01:04.353Z,2.03
2023-06-04T09:03:35.208Z,2.17
2023-06-04T09:06:04.542Z,2.60
2023-06-04T09:08:39.702Z,2.10
2023-06-04T09:11:13.100Z,2.13
2023-06-04T09:13:43.709Z,2.22
2023-06-04T09:16:12.390Z,2.50
2023-06-04T09:18:43.165Z,2.05
2023-06-04T09:21:11.726Z,2.20
2023-06-04T09:23:47.355Z,2.20
2023-06-04T09:26:16.573Z,2.10
2023-06-04T09:28:47.079Z,2.30
2023-06-04T09:31:17.689Z,2.25
2023-06-04T09:33:50.430Z,2.40
2023-06-04T09:36:19.596Z,2.20
2023-06-04T09:38:48.852Z,2.05
2023-06-04T09:41:24.791Z,2.30
2023-06-04T09:44:03.979Z,2.33
2023-06-04T09:46:33.144Z,2.35
2023-06-04T09:49:05.519Z,2.08
2023-06-04T09:51:34.613Z,2.08
2023-06-04T09:54:05.345Z,2.17
2023-06-04T09:56:42.507Z,2.10
2023-06-04T09:59:12.120Z,1.88
2023-06-04T10:01:44.185Z,2.00
2023-06-04T10:04:17.165Z,2.10
2023-06-04T10:06:46.001Z,2.40
2023-06-04T10:09:16.066Z,2.08
2023-06-04T10:11:55.650Z,2.53
2023-06-04T10:14:27.585Z,2.20
2023-06-04T10:17:00.526Z,2.35
2023-06-04T10:19:32.397Z,2.35
2023-06-04T10:22:00.698Z,2.10
2023-06-04T10:24:29.185Z,2.30
2023-06-04T10:27:00.500Z,2.03
2023-06-04T10:29:31.984Z,2.17
2023-06-04T10:32:00.338Z,2.40
2023-06-04T10:34:31.113Z,2.22
2023-06-04T10:36:59.805Z,2.60
2023-06-04T10:39:29.162Z,2.50
2023-06-04T10:42:02.590Z,2.20
2023-06-04T10:44:32.169Z,2.13
2023-06-04T10:47:01.031Z,4.95
2023-06-04T10:49:33.079Z,2.22
2023-06-04T10:52:12.981Z,2.30
2023-06-04T10:54:41.516Z,2.40
2023-06-04T10:57:14.063Z,2.08
2023-06-04T10:59:42.535Z,2.38
2023-06-04T11:02:11.342Z,2.83
2023-06-04T11:04:41.327Z,2.90
2023-06-04T11:07:10.904Z,2.50
2023-06-04T11:09:49.624Z,2.60
2023-06-04T11:12:18.773Z,2.58
2023-06-04T11:14:57.046Z,2.50
2023-06-04T11:17:25.845Z,2.50
2023-06-04T11:19:56.768Z,2.70
2023-06-04T11:22:26.082Z,2.22
2023-06-04T11:25:00.384Z,2.58
2023-06-04T11:27:36.810Z,2.33
2023-06-04T11:30:09.853Z,2.20
2023-06-04T11:32:38.186Z,2.55
2023-06-04T11:35:09.616Z,2.65
2023-06-04T11:37:38.707Z,2.30
2023-06-04T11:40:19.149Z,2.40
2023-06-04T11:42:49.066Z,2.78
2023-06-04T11:45:20.339Z,2.60
2023-06-04T11:47:50.530Z,2.53
2023-06-04T11:50:20.509Z,3.17
2023-06-04T11:52:50.490Z,2.47
2023-06-04T11:55:21.899Z,2.60
2023-06-04T11:57:52.025Z,2.70
2023-06-04T12:00:23.082Z,2.40
2023-06-04T12:02:54.756Z,2.72
2023-06-04T12:05:31.710Z,2.40
2023-06-04T12:08:11.293Z,2.90
2023-06-04T12:10:41.666Z,2.72
2023-06-04T12:13:10.573Z,2.70
2023-06-04T12:15:39.213Z,2.70
2023-06-04T12:18:08.085Z,2.70
2023-06-04T12:20:39.759Z,2.85
2023-06-04T12:23:09.564Z,2.70
2023-06-04T12:25:40.171Z,2.40
2023-06-04T12:28:18.965Z,2.70
2023-06-04T12:30:50.667Z,2.38
2023-06-04T12:33:19.202Z,2.50
2023-06-04T12:35:48.912Z,2.78
2023-06-04T12:38:17.253Z,2.60
2023-06-04T12:40:45.969Z,2.90
2023-06-04T12:43:14.248Z,3.08
2023-06-04T12:45:42.941Z,2.55
2023-06-04T12:48:11.502Z,2.40
2023-06-04T12:50:40.244Z,2.40
2023-06-04T12:53:09.895Z,2.50
2023-06-04T12:55:38.549Z,2.47
2023-06-04T12:58:06.857Z,2.55
2023-06-04T13:00:35.226Z,2.80
2023-06-04T13:03:04.151Z,2.53
2023-06-04T13:05:32.814Z,2.47
2023-06-04T13:08:02.324Z,2.38
2023-06-04T13:10:32.327Z,2.38
2023-06-04T13:13:00.659Z,2.47
2023-06-04T13:15:30.513Z,2.38
2023-06-04T13:17:58.884Z,2.50
2023-06-04T13:20:27.534Z,2.53
2023-06-04T13:22:56.032Z,2.25
2023-06-04T13:25:25.066Z,2.30
2023-06-04T13:27:55.063Z,2.35
2023-06-04T13:30:24.539Z,2.47
2023-06-04T13:32:53.402Z,2.30
2023-06-04T13:35:22.765Z,2.50
2023-06-04T13:37:52.332Z,2.53
2023-06-04T13:40:20.644Z,2.60
2023-06-04T13:42:49.308Z,2.45
2023-06-04T13:45:21.273Z,2.50
2023-06-04T13:47:50.256Z,2.28
2023-06-04T13:50:18.905Z,2.60
2023-06-04T13:52:47.266Z,2.53
2023-06-04T13:55:15.650Z,2.70
2023-06-04T13:57:44.454Z,2.60
2023-06-04T14:00:16.123Z,2.47
2023-06-04T14:02:46.086Z,2.60
2023-06-04T14:05:14.754Z,2.63
2023-06-04T14:07:44.455Z,2.33
2023-06-04T14:10:13.468Z,2.50
2023-06-04T14:12:42.544Z,2.30
2023-06-04T14:15:12.963Z,2.35
2023-06-04T14:17:41.601Z,2.30
2023-06-04T14:20:12.060Z,2.85
2023-06-04T14:22:41.000Z,2.70
2023-06-04T14:25:10.956Z,2.92
2023-06-04T14:27:39.634Z,2.60
2023-06-04T14:30:10.442Z,2.67
2023-06-04T14:32:39.670Z,2.53
2023-06-04T14:35:10.802Z,2.70
2023-06-04T14:37:39.124Z,2.60
2023-06-04T14:40:09.222Z,2.70
2023-06-04T14:42:37.634Z,2.60
2023-06-04T14:45:07.244Z,2.97
2023-06-04T14:47:35.675Z,2.90
2023-06-04T14:50:04.005Z,2.80
2023-06-04T14:52:33.680Z,2.70
2023-06-04T14:55:01.946Z,2.78
2023-06-04T14:57:30.217Z,2.80
2023-06-04T14:59:58.515Z,2.65
2023-06-04T15:02:26.851Z,2.58
2023-06-04T15:04:55.158Z,2.58
2023-06-04T15:07:24.998Z,3.13
2023-06-04T15:09:54.644Z,2.45
2023-06-04T15:12:23.249Z,2.58
2023-06-04T15:14:51.978Z,2.53
2023-06-04T15:17:20.408Z,2.53
2023-06-04T15:19:49.157Z,2.80
2023-06-04T15:22:17.861Z,2.50
2023-06-04T15:24:46.484Z,2.65
2023-06-04T15:27:16.332Z,2.63
2023-06-04T15:29:46.499Z,2.40
2023-06-04T15:32:16.755Z,2.65
2023-06-04T15:34:45.665Z,2.95
2023-06-04T15:37:13.984Z,2.55
2023-06-04T15:39:42.635Z,2.75
2023-06-04T15:42:13.028Z,3.05
2023-06-04T15:44:43.230Z,3.08
2023-06-04T15:47:12.567Z,2.67
2023-06-04T15:49:41.138Z,2.80
2023-06-04T15:52:09.812Z,2.63
2023-06-04T15:57:12.933Z,2.97
2023-06-04T15:59:44.165Z,2.72
2023-06-04T16:02:12.801Z,2.80
2023-06-04T16:04:41.158Z,2.65
2023-06-04T16:07:09.459Z,2.80
2023-06-04T16:09:38.312Z,2.80
2023-06-04T16:12:07.387Z,2.58
2023-06-04T16:14:36.283Z,3.70
2023-06-04T16:17:06.831Z,2.53
2023-06-04T16:19:35.186Z,2.65
2023-06-04T16:22:03.879Z,2.60
2023-06-04T16:24:32.706Z,3.00
2023-06-04T16:27:01.390Z,2.83
2023-06-04T16:29:29.619Z,2.58
2023-06-04T16:31:58.284Z,3.47
2023-06-04T16:34:28.019Z,3.42
2023-06-04T16:36:56.317Z,3.05
2023-06-04T16:39:24.916Z,2.42
2023-06-04T16:41:53.919Z,2.80
2023-06-04T16:44:22.254Z,2.97
2023-06-04T16:46:50.642Z,2.80
2023-06-04T16:49:19.026Z,2.90
2023-06-04T16:51:49.466Z,2.97
2023-06-04T16:54:19.093Z,2.75
2023-06-04T16:56:47.467Z,2.72
2023-06-04T16:59:15.872Z,2.80
2023-06-04T17:01:44.661Z,2.80
2023-06-04T17:04:12.945Z,2.85
2023-06-04T17:06:41.562Z,2.60
2023-06-04T17:09:11.808Z,2.70
2023-06-04T17:11:40.297Z,2.97
2023-06-04T17:14:09.144Z,3.00
2023-06-04T17:16:38.220Z,2.80
2023-06-04T17:19:07.346Z,2.80
2023-06-04T17:21:37.061Z,3.20
2023-06-04T17:24:05.994Z,2.83
2023-06-04T17:26:36.123Z,2.80
2023-06-04T17:29:05.535Z,3.00
2023-06-04T17:31:34.256Z,2.80
2023-06-04T17:34:03.043Z,2.90
2023-06-04T17:36:31.515Z,2.70
2023-06-04T17:39:00.179Z,2.88
2023-06-04T17:41:30.151Z,3.25
2023-06-04T17:44:00.129Z,3.00
2023-06-04T17:46:28.827Z,2.85
2023-06-04T17:48:58.638Z,3.00
2023-06-04T17:51:27.266Z,3.17
2023-06-04T17:53:55.883Z,2.45
2023-06-04T17:56:24.442Z,2.90
2023-06-04T17:58:53.044Z,3.15
2023-06-04T18:01:22.714Z,2.92
2023-06-04T18:03:51.804Z,2.83
2023-06-04T18:06:20.499Z,2.90
2023-06-04T18:08:49.217Z,3.05
2023-06-04T18:11:17.878Z,3.03
2023-06-04T18:13:46.638Z,2.88
2023-06-04T18:16:16.300Z,3.10
2023-06-04T18:18:46.497Z,3.22
2023-06-04T18:21:14.833Z,2.90
2023-06-04T18:23:49.833Z,3.20
2023-06-04T18:26:18.126Z,2.90
2023-06-04T18:28:47.066Z,3.25
2023-06-04T18:31:15.411Z,3.30
2023-06-04T18:33:54.045Z,3.10
2023-06-04T18:36:23.065Z,3.03
2023-06-04T18:38:51.738Z,3.17
2023-06-04T18:41:20.322Z,3.20
2023-06-04T18:43:49.050Z,3.17
2023-06-04T18:46:18.019Z,2.80
2023-06-04T18:48:48.034Z,3.17
2023-06-04T18:51:17.756Z,2.95
2023-06-04T18:53:46.422Z,3.25
2023-06-04T18:56:15.029Z,3.10
2023-06-04T18:58:46.863Z,3.10
2023-06-04T19:01:16.507Z,3.00
2023-06-04T19:03:45.196Z,2.90
2023-06-04T19:06:13.953Z,3.53
2023-06-04T19:08:43.697Z,3.30
2023-06-04T19:11:12.317Z,3.10
2023-06-04T19:13:41.015Z,3.20
2023-06-04T19:16:11.986Z,3.00
2023-06-04T19:18:40.472Z,3.17
2023-06-04T19:21:09.148Z,3.00
2023-06-04T19:23:38.209Z,3.58
2023-06-04T19:26:09.058Z,3.47
2023-06-04T19:28:38.845Z,3.67
2023-06-04T19:31:07.543Z,3.47
2023-06-04T19:33:36.418Z,3.20
2023-06-04T19:36:05.854Z,3.00
2023-06-04T19:38:34.878Z,3.10
2023-06-04T19:41:03.645Z,3.28
2023-06-04T19:43:33.299Z,3.30
2023-06-04T19:46:03.038Z,3.78
2023-06-04T19:48:31.834Z,3.90
2023-06-04T19:51:00.495Z,3.35
2023-06-04T19:53:29.595Z,3.33
2023-06-04T19:55:58.224Z,3.40
2023-06-04T19:58:27.785Z,3.67
2023-06-04T20:00:57.798Z,3.30
2023-06-04T20:03:26.698Z,3.50
2023-06-04T20:05:55.777Z,3.60
2023-06-04T20:08:26.046Z,3.40
2023-06-04T20:10:54.876Z,3.85
2023-06-04T20:13:23.594Z,3.50
2023-06-04T20:15:52.344Z,3.40
2023-06-04T20:18:23.511Z,3.45
2023-06-04T20:20:53.311Z,3.50
2023-06-04T20:23:22.083Z,3.17
2023-06-04T20:25:51.642Z,3.00
2023-06-04T20:28:20.704Z,3.05
2023-06-04T20:30:49.966Z,2.90
2023-06-04T20:33:18.353Z,3.08
2023-06-04T20:35:48.067Z,2.70
2023-06-04T20:38:16.881Z,2.90
2023-06-04T20:40:45.867Z,2.60
2023-06-04T20:43:17.361Z,2.60
2023-06-04T20:45:45.978Z,2.30
2023-06-04T20:48:14.702Z,2.42
2023-06-04T20:50:43.348Z,2.50
2023-06-04T20:53:13.216Z,2.40
2023-06-04T20:55:41.970Z,2.40
2023-06-04T20:58:10.940Z,2.33
2023-06-04T21:00:39.605Z,2.33
2023-06-04T21:03:08.062Z,2.58
2023-06-04T21:05:36.515Z,2.28
2023-06-04T21:08:05.540Z,2.10
2023-06-04T21:10:35.769Z,2.15
2023-06-04T21:13:04.274Z,2.58
2023-06-04T21:15:33.150Z,2.72
2023-06-04T21:18:01.869Z,2.60
2023-06-04T21:20:30.605Z,2.50
2023-06-04T21:22:58.953Z,2.50
2023-06-04T21:25:27.603Z,2.50
2023-06-04T21:27:57.349Z,2.55
2023-06-04T21:30:26.406Z,2.20
2023-06-04T21:32:55.339Z,2.60
2023-06-04T21:35:23.973Z,2.30
2023-06-04T21:37:52.655Z,2.20
2023-06-04T21:40:21.249Z,2.13
2023-06-04T21:42:49.970Z,2.10
2023-06-04T21:45:20.528Z,2.53
2023-06-04T21:47:49.475Z,2.20
2023-06-04T21:50:18.166Z,2.42
2023-06-04T21:52:47.637Z,2.13
2023-06-04T21:55:16.790Z,2.22
2023-06-04T21:57:45.453Z,2.30
2023-06-04T22:00:16.791Z,2.60
2023-06-04T22:02:47.297Z,2.10
2023-06-04T22:05:16.085Z,2.20
2023-06-04T22:07:44.354Z,2.53
2023-06-04T22:10:13.244Z,2.35
2023-06-04T22:12:42.641Z,2.22
2023-06-04T22:15:11.752Z,2.17
2023-06-04T22:17:40.384Z,2.03
2023-06-04T22:20:11.663Z,2.10
2023-06-04T22:22:39.997Z,2.10
2023-06-04T22:25:09.354Z,2.25
2023-06-04T22:27:38.001Z,2.10
2023-06-04T22:30:08.540Z,2.40
2023-06-04T22:32:37.333Z,2.40
2023-06-04T22:35:06.582Z,2.20
2023-06-04T22:37:36.486Z,2.50
2023-06-04T22:40:06.168Z,2.45
2023-06-04T22:42:34.590Z,2.30
2023-06-04T22:45:03.365Z,1.85
2023-06-04T22:47:32.757Z,2.17
2023-06-04T22:50:01.225Z,2.45
2023-06-04T22:52:30.022Z,2.25
2023-06-04T22:54:59.802Z,2.22
2023-06-04T22:57:28.572Z,2.38
2023-06-04T22:59:57.180Z,2.03
2023-06-04T23:02:25.486Z,2.35
2023-06-04T23:04:54.148Z,2.30
2023-06-04T23:07:22.757Z,2.38
2023-06-04T23:09:52.515Z,1.92
2023-06-04T23:12:22.563Z,2.10
2023-06-04T23:14:51.258Z,2.13
2023-06-04T23:17:20.769Z,2.13
2023-06-04T23:19:49.508Z,2.30
2023-06-04T23:22:18.149Z,2.42
2023-06-04T23:24:46.801Z,2.45
2023-06-04T23:27:15.549Z,2.15
2023-06-04T23:29:46.278Z,2.40
2023-06-04T23:32:14.792Z,2.40
2023-06-04T23:34:43.565Z,2.20
2023-06-04T23:37:12.655Z,2.03
2023-06-04T23:39:41.404Z,2.70
2023-06-04T23:42:10.062Z,2.40
2023-06-04T23:44:38.904Z,2.08
2023-06-04T23:47:09.328Z,2.20
2023-06-04T23:49:37.942Z,2.30
2023-06-04T23:52:07.386Z,2.35
2023-06-04T23:54:35.773Z,2.60
2023-06-04T23:57:04.103Z,2.53
2023-06-04T23:59:32.782Z,2.42
